CST,Max TemperatureF,Mean TemperatureF,Min TemperatureF,Max Dew PointF,MeanDew PointF,Min DewpointF,Max Humidity, Mean Humidity, Min Humidity, Max Sea Level PressureIn, Mean Sea Level PressureIn, Min Sea Level PressureIn, Max VisibilityMiles, Mean VisibilityMiles, Min VisibilityMiles, Max Wind SpeedMPH, Mean Wind SpeedMPH, Max Gust SpeedMPH,PrecipitationIn, CloudCover, Events, WindDirDegrees
2013-1-1,34,26,17,34,25,13,100,91,81,30.28,30.17,30.04,10,6,1,17,9,20,T,7,,6
2013-1-2,36,25,14,20,16,11,88,64,40,30.29,30.25,30.19,10,9,5,12,6,16,0.00,1,,210
2013-1-3,42,31,19,27,22,18,92,70,48,30.43,30.38,30.23,10,9,4,13,4,17,0.00,3,,280
2013-1-4,45,31,16,25,21,16,91,66,40,30.47,30.40,30.33,10,10,9,14,8,17,0.00,1,,227
2013-1-5,42,34,26,32,28,20,85,73,60,30.31,30.24,30.14,10,10,10,18,9,23,T,6,,200
2013-1-6,42,32,21,29,21,16,85,63,41,30.39,30.32,30.21,10,10,7,15,7,18,0.00,0,,292
2013-1-7,50,38,25,26,23,17,82,59,31,30.38,30.25,30.13,10,10,8,16,10,,0.00,0,,162
2013-1-8,56,43,30,47,36,23,100,71,42,30.21,30.14,30.06,10,8,2,20,11,23,0.26,5,Rain,174
2013-1-9,56,50,44,47,42,31,100,76,51,30.40,30.30,30.21,10,6,1,21,9,27,0.01,6,Rain,55
2013-1-10,54,48,43,52,47,35,100,93,63,30.27,29.97,29.82,10,7,2,22,14,29,0.39,8,Rain,137
2013-1-11,66,56,45,47,44,41,93,69,44,29.85,29.79,29.71,10,10,10,26,16,33,0.00,2,,182
2013-1-12,55,41,27,47,31,25,92,71,50,29.97,29.89,29.79,10,8,2,26,14,34,0.57,8,Rain,358
2013-1-13,27,21,15,25,17,11,92,85,77,30.38,30.18,29.98,10,10,8,23,11,27,0.00,6,,336
2013-1-14,29,21,13,18,14,9,92,75,57,30.51,30.41,30.32,10,10,7,12,6,15,0.00,1,,29
2013-1-15,31,23,15,21,16,11,92,75,58,30.37,30.28,30.19,10,10,10,13,6,15,0.00,4,,32
2013-1-16,40,27,13,22,18,11,92,68,44,30.20,30.16,30.10,10,10,10,16,6,21,0.00,0,,236
2013-1-17,45,34,23,30,24,19,89,67,45,30.51,30.38,30.19,10,9,6,18,8,23,0.00,1,,329
2013-1-18,57,41,24,32,24,21,85,55,24,30.51,30.34,30.18,10,10,10,26,14,33,0.00,0,,183
2013-1-19,63,50,36,35,32,26,73,54,34,30.22,30.12,30.04,10,10,10,24,14,31,0.00,0,,233
2013-1-20,52,40,27,30,19,11,85,53,20,30.31,30.25,30.19,10,10,10,16,8,22,0.00,0,,25
2013-1-21,33,26,18,15,12,9,80,61,41,30.41,30.37,30.31,10,10,10,16,9,23,0.00,1,,357
2013-1-22,34,27,19,17,14,10,68,57,45,30.39,30.32,30.27,10,10,10,13,7,15,0.00,3,,113
2013-1-23,57,40,22,38,27,17,81,66,51,30.31,30.24,30.16,10,10,10,14,9,18,0.00,0,,195
2013-1-24,34,29,23,21,13,10,63,52,41,30.43,30.29,30.13,10,10,10,25,14,32,0.00,7,,106
2013-1-25,49,38,27,27,24,19,92,67,42,30.27,30.19,30.09,10,9,7,14,7,30,0.00,4,,287
2013-1-26,58,44,29,25,23,21,78,51,24,30.30,30.23,30.14,10,10,9,18,8,32,0.00,1,,145
2013-1-27,55,48,41,52,42,27,93,66,38,30.14,30.00,29.90,10,10,10,26,18,35,0.02,6,Rain,159
2013-1-28,74,65,55,60,57,52,93,73,53,29.95,29.89,29.80,10,10,10,32,17,40,0.00,7,,184
2013-1-29,69,57,45,61,55,45,100,87,73,29.76,29.56,29.43,10,8,2,32,12,42,1.65,8,Rain-Thunderstorm,162
2013-1-30,47,37,26,44,30,17,100,84,68,30.04,29.67,29.46,10,7,0,30,17,39,T,8,Fog-Rain-Snow,284
2013-1-31,38,25,11,26,16,2,88,74,59,30.46,30.18,29.99,10,8,1,28,11,32,0.01,3,Snow,297